sensor_id;sensor_type;location;lat;lon;timestamp;pressure;altitude;pressure_sealevel;temperature;humidity
72285;BME280;60220;53.552;10.092;2022-08-03T00:01:03;101272.16;;;23.69;54.60
72285;BME280;60220;53.552;10.092;2022-08-03T00:03:29;101264.44;;;23.78;54.40
72285;BME280;60220;53.552;10.092;2022-08-03T00:05:55;101255.53;;;23.78;53.97
72285;BME280;60220;53.552;10.092;2022-08-03T00:08:20;101266.47;;;23.89;53.55
72285;BME280;60220;53.552;10.092;2022-08-03T00:10:48;101261.34;;;24.00;53.48
72285;BME280;60220;53.552;10.092;2022-08-03T00:13:14;101262.44;;;23.82;54.12
72285;BME280;60220;53.552;10.092;2022-08-03T00:15:48;101262.28;;;23.85;54.79
72285;BME280;60220;53.552;10.092;2022-08-03T00:18:14;101263.72;;;24.20;53.39
72285;BME280;60220;53.552;10.092;2022-08-03T00:20:42;101257.72;;;24.15;54.40
72285;BME280;60220;53.552;10.092;2022-08-03T00:23:08;101260.03;;;24.21;53.61
72285;BME280;60220;53.552;10.092;2022-08-03T00:25:34;101258.63;;;24.30;52.58
72285;BME280;60220;53.552;10.092;2022-08-03T00:28:03;101259.88;;;23.80;54.85
72285;BME280;60220;53.552;10.092;2022-08-03T00:30:29;101259.94;;;23.79;54.60
72285;BME280;60220;53.552;10.092;2022-08-03T00:32:55;101252.84;;;23.78;54.96
72285;BME280;60220;53.552;10.092;2022-08-03T00:35:21;101247.09;;;23.70;55.56
72285;BME280;60220;53.552;10.092;2022-08-03T00:37:47;101257.94;;;23.52;55.71
72285;BME280;60220;53.552;10.092;2022-08-03T00:40:14;101247.47;;;23.32;56.49
72285;BME280;60220;53.552;10.092;2022-08-03T00:42:54;101259.78;;;23.21;57.00
72285;BME280;60220;53.552;10.092;2022-08-03T00:45:28;101252.13;;;23.44;56.00
72285;BME280;60220;53.552;10.092;2022-08-03T00:47:56;101250.59;;;23.40;56.32
72285;BME280;60220;53.552;10.092;2022-08-03T00:50:24;101250.53;;;23.26;56.52
72285;BME280;60220;53.552;10.092;2022-08-03T00:52:54;101254.97;;;22.96;57.42
72285;BME280;60220;53.552;10.092;2022-08-03T00:55:20;101247.69;;;22.98;57.44
72285;BME280;60220;53.552;10.092;2022-08-03T00:57:51;101254.50;;;22.88;58.02
72285;BME280;60220;53.552;10.092;2022-08-03T01:00:21;101252.44;;;22.93;57.70
72285;BME280;60220;53.552;10.092;2022-08-03T01:02:47;101241.84;;;23.52;56.18
72285;BME280;60220;53.552;10.092;2022-08-03T01:05:12;101248.00;;;23.23;56.93
72285;BME280;60220;53.552;10.092;2022-08-03T01:07:42;101250.88;;;23.20;56.98
72285;BME280;60220;53.552;10.092;2022-08-03T01:12:56;101255.28;;;22.90;57.78
72285;BME280;60220;53.552;10.092;2022-08-03T01:15:39;101254.59;;;23.17;57.74
72285;BME280;60220;53.552;10.092;2022-08-03T01:18:17;101248.34;;;23.33;56.81
72285;BME280;60220;53.552;10.092;2022-08-03T01:20:48;101255.28;;;22.90;58.04
72285;BME280;60220;53.552;10.092;2022-08-03T01:23:55;101257.88;;;22.76;58.03
72285;BME280;60220;53.552;10.092;2022-08-03T01:31:45;101244.97;;;22.33;59.67
72285;BME280;60220;53.552;10.092;2022-08-03T01:34:14;101244.75;;;22.71;58.76
72285;BME280;60220;53.552;10.092;2022-08-03T01:36:43;101240.84;;;22.77;57.67
72285;BME280;60220;53.552;10.092;2022-08-03T01:39:14;101236.53;;;22.08;59.16
72285;BME280;60220;53.552;10.092;2022-08-03T01:41:48;101236.63;;;22.07;59.36
72285;BME280;60220;53.552;10.092;2022-08-03T01:44:15;101234.53;;;22.29;58.63
72285;BME280;60220;53.552;10.092;2022-08-03T01:46:43;101240.03;;;22.59;58.05
72285;BME280;60220;53.552;10.092;2022-08-03T01:49:16;101238.38;;;22.41;58.27
72285;BME280;60220;53.552;10.092;2022-08-03T01:51:44;101234.94;;;21.87;59.45
72285;BME280;60220;53.552;10.092;2022-08-03T01:54:12;101230.63;;;21.67;60.04
72285;BME280;60220;53.552;10.092;2022-08-03T01:56:41;101233.47;;;21.64;60.10
72285;BME280;60220;53.552;10.092;2022-08-03T01:59:09;101232.72;;;21.97;59.58
72285;BME280;60220;53.552;10.092;2022-08-03T02:04:18;101235.81;;;21.87;59.23
72285;BME280;60220;53.552;10.092;2022-08-03T02:06:45;101223.09;;;21.58;60.29
72285;BME280;60220;53.552;10.092;2022-08-03T02:09:14;101231.72;;;21.29;60.78
72285;BME280;60220;53.552;10.092;2022-08-03T02:11:44;101225.44;;;21.11;61.63
72285;BME280;60220;53.552;10.092;2022-08-03T02:14:14;101230.22;;;21.23;61.70
72285;BME280;60220;53.552;10.092;2022-08-03T02:16:43;101223.22;;;21.21;61.46
72285;BME280;60220;53.552;10.092;2022-08-03T02:19:10;101227.81;;;21.36;61.16
72285;BME280;60220;53.552;10.092;2022-08-03T02:21:36;101222.66;;;22.02;58.98
72285;BME280;60220;53.552;10.092;2022-08-03T02:24:02;101230.34;;;21.56;60.32
72285;BME280;60220;53.552;10.092;2022-08-03T02:26:34;101224.75;;;21.78;60.03
72285;BME280;60220;53.552;10.092;2022-08-03T02:29:10;101226.25;;;21.66;59.82
72285;BME280;60220;53.552;10.092;2022-08-03T02:31:38;101224.53;;;21.65;59.82
72285;BME280;60220;53.552;10.092;2022-08-03T02:34:10;101220.91;;;21.66;59.78
72285;BME280;60220;53.552;10.092;2022-08-03T02:36:37;101219.09;;;21.50;60.34
72285;BME280;60220;53.552;10.092;2022-08-03T02:39:09;101216.97;;;21.73;60.19
72285;BME280;60220;53.552;10.092;2022-08-03T02:41:50;101214.16;;;21.59;60.45
72285;BME280;60220;53.552;10.092;2022-08-03T02:44:22;101212.56;;;21.72;60.10
72285;BME280;60220;53.552;10.092;2022-08-03T02:46:53;101212.56;;;21.55;61.90
72285;BME280;60220;53.552;10.092;2022-08-03T02:49:20;101203.66;;;21.37;61.56
72285;BME280;60220;53.552;10.092;2022-08-03T02:51:51;101209.34;;;21.48;60.33
72285;BME280;60220;53.552;10.092;2022-08-03T02:54:22;101207.38;;;21.52;59.91
72285;BME280;60220;53.552;10.092;2022-08-03T02:56:51;101220.34;;;21.07;61.80
72285;BME280;60220;53.552;10.092;2022-08-03T02:59:23;101211.28;;;21.28;61.42
72285;BME280;60220;53.552;10.092;2022-08-03T03:01:50;101210.75;;;20.84;62.36
72285;BME280;60220;53.552;10.092;2022-08-03T03:04:18;101213.31;;;21.23;61.22
72285;BME280;60220;53.552;10.092;2022-08-03T03:06:45;101208.53;;;21.29;60.60
72285;BME280;60220;53.552;10.092;2022-08-03T03:09:11;101210.75;;;20.84;62.46
72285;BME280;60220;53.552;10.092;2022-08-03T03:11:37;101204.06;;;20.75;62.48
72285;BME280;60220;53.552;10.092;2022-08-03T03:14:03;101206.34;;;20.83;62.69
72285;BME280;60220;53.552;10.092;2022-08-03T03:16:30;101216.34;;;20.60;63.04
72285;BME280;60220;53.552;10.092;2022-08-03T03:18:56;101209.16;;;20.42;63.92
72285;BME280;60220;53.552;10.092;2022-08-03T03:21:25;101211.00;;;20.42;64.05
72285;BME280;60220;53.552;10.092;2022-08-03T03:23:53;101203.47;;;20.69;62.90
72285;BME280;60220;53.552;10.092;2022-08-03T03:26:21;101207.66;;;20.74;62.65
72285;BME280;60220;53.552;10.092;2022-08-03T03:28:47;101217.91;;;20.46;64.05
72285;BME280;60220;53.552;10.092;2022-08-03T03:31:14;101215.25;;;20.26;64.44
72285;BME280;60220;53.552;10.092;2022-08-03T03:33:39;101207.78;;;20.34;64.61
72285;BME280;60220;53.552;10.092;2022-08-03T03:36:05;101208.38;;;20.78;63.55
72285;BME280;60220;53.552;10.092;2022-08-03T03:38:32;101211.03;;;20.01;65.39
72285;BME280;60220;53.552;10.092;2022-08-03T03:41:00;101216.25;;;20.23;65.12
72285;BME280;60220;53.552;10.092;2022-08-03T03:43:26;101212.25;;;20.33;64.60
72285;BME280;60220;53.552;10.092;2022-08-03T03:45:57;101208.38;;;20.78;62.67
72285;BME280;60220;53.552;10.092;2022-08-03T03:48:24;101211.56;;;20.86;62.44
72285;BME280;60220;53.552;10.092;2022-08-03T03:50:49;101214.66;;;20.58;63.37
72285;BME280;60220;53.552;10.092;2022-08-03T03:53:15;101216.44;;;20.95;62.21
72285;BME280;60220;53.552;10.092;2022-08-03T03:55:43;101205.47;;;19.87;65.53
72285;BME280;60220;53.552;10.092;2022-08-03T03:58:11;101215.75;;;19.95;65.13
72285;BME280;60220;53.552;10.092;2022-08-03T04:00:37;101221.28;;;20.10;65.07
72285;BME280;60220;53.552;10.092;2022-08-03T04:03:04;101208.59;;;20.36;64.19
72285;BME280;60220;53.552;10.092;2022-08-03T04:05:30;101220.88;;;19.99;65.56
72285;BME280;60220;53.552;10.092;2022-08-03T04:08:17;101219.00;;;20.22;64.92
72285;BME280;60220;53.552;10.092;2022-08-03T04:11:06;101214.13;;;21.06;61.94
72285;BME280;60220;53.552;10.092;2022-08-03T04:14:31;101212.56;;;20.46;63.85
72285;BME280;60220;53.552;10.092;2022-08-03T04:16:38;101212.91;;;19.99;65.42
72285;BME280;60220;53.552;10.092;2022-08-03T04:19:09;101211.44;;;20.70;63.41
72285;BME280;60220;53.552;10.092;2022-08-03T04:21:39;101216.44;;;20.95;62.22
72285;BME280;60220;53.552;10.092;2022-08-03T04:24:07;101220.22;;;20.53;63.76
72285;BME280;60220;53.552;10.092;2022-08-03T04:26:38;101214.19;;;21.04;62.09
72285;BME280;60220;53.552;10.092;2022-08-03T04:29:08;101216.31;;;20.79;63.14
72285;BME280;60220;53.552;10.092;2022-08-03T04:31:37;101213.19;;;20.88;62.32
72285;BME280;60220;53.552;10.092;2022-08-03T04:34:03;101215.34;;;21.18;62.02
72285;BME280;60220;53.552;10.092;2022-08-03T04:36:31;101213.81;;;21.48;61.37
72285;BME280;60220;53.552;10.092;2022-08-03T04:41:26;101219.47;;;20.87;62.93
72285;BME280;60220;53.552;10.092;2022-08-03T04:43:57;101217.03;;;21.20;62.24
72285;BME280;60220;53.552;10.092;2022-08-03T04:46:26;101211.00;;;21.51;60.87
72285;BME280;60220;53.552;10.092;2022-08-03T04:48:53;101212.94;;;21.47;61.13
72285;BME280;60220;53.552;10.092;2022-08-03T04:51:19;101217.94;;;21.19;62.40
72285;BME280;60220;53.552;10.092;2022-08-03T04:53:45;101223.59;;;20.94;63.02
72285;BME280;60220;53.552;10.092;2022-08-03T04:56:10;101220.25;;;21.44;61.35
72285;BME280;60220;53.552;10.092;2022-08-03T04:58:36;101231.31;;;22.22;59.14
72285;BME280;60220;53.552;10.092;2022-08-03T05:01:01;101228.28;;;21.27;61.78
72285;BME280;60220;53.552;10.092;2022-08-03T05:03:34;101226.19;;;20.96;63.38
72285;BME280;60220;53.552;10.092;2022-08-03T05:06:02;101235.38;;;20.72;63.89
72285;BME280;60220;53.552;10.092;2022-08-03T05:08:27;101235.03;;;21.34;62.19
72285;BME280;60220;53.552;10.092;2022-08-03T05:10:54;101234.72;;;21.74;60.68
72285;BME280;60220;53.552;10.092;2022-08-03T05:13:24;101227.25;;;21.11;62.60
72285;BME280;60220;53.552;10.092;2022-08-03T05:15:52;101231.50;;;21.68;61.72
72285;BME280;60220;53.552;10.092;2022-08-03T05:18:18;101226.84;;;21.20;62.26
72285;BME280;60220;53.552;10.092;2022-08-03T05:20:43;101232.63;;;21.81;60.50
72285;BME280;60220;53.552;10.092;2022-08-03T05:23:11;101232.09;;;22.57;58.06
72285;BME280;60220;53.552;10.092;2022-08-03T05:25:36;101233.41;;;22.00;59.69
72285;BME280;60220;53.552;10.092;2022-08-03T05:28:02;101231.88;;;21.77;60.44
72285;BME280;60220;53.552;10.092;2022-08-03T05:30:30;101231.50;;;22.19;59.38
72285;BME280;60220;53.552;10.092;2022-08-03T05:32:57;101236.47;;;22.10;59.75
72285;BME280;60220;53.552;10.092;2022-08-03T05:35:24;101230.13;;;22.77;57.76
72285;BME280;60220;53.552;10.092;2022-08-03T05:37:50;101234.41;;;22.81;57.10
72285;BME280;60220;53.552;10.092;2022-08-03T05:40:18;101239.63;;;22.66;57.46
72285;BME280;60220;53.552;10.092;2022-08-03T05:42:44;101236.06;;;22.50;57.97
72285;BME280;60220;53.552;10.092;2022-08-03T05:45:09;101229.19;;;23.25;55.71
72285;BME280;60220;53.552;10.092;2022-08-03T05:47:44;101228.69;;;22.38;58.60
72285;BME280;60220;53.552;10.092;2022-08-03T05:50:11;101237.94;;;22.48;58.28
72285;BME280;60220;53.552;10.092;2022-08-03T05:52:40;101233.13;;;22.55;58.37
72285;BME280;60220;53.552;10.092;2022-08-03T05:55:07;101234.47;;;22.79;57.66
72285;BME280;60220;53.552;10.092;2022-08-03T05:57:35;101233.09;;;22.06;59.70
72285;BME280;60220;53.552;10.092;2022-08-03T06:00:06;101231.44;;;21.69;61.54
72285;BME280;60220;53.552;10.092;2022-08-03T06:02:32;101231.25;;;22.07;60.47
72285;BME280;60220;53.552;10.092;2022-08-03T06:04:57;101224.72;;;21.97;60.89
72285;BME280;60220;53.552;10.092;2022-08-03T06:07:26;101225.84;;;22.08;60.53
72285;BME280;60220;53.552;10.092;2022-08-03T06:09:52;101238.06;;;22.29;60.15
72285;BME280;60220;53.552;10.092;2022-08-03T06:12:23;101231.41;;;22.54;59.38
72285;BME280;60220;53.552;10.092;2022-08-03T06:14:48;101235.94;;;22.85;58.41
72285;BME280;60220;53.552;10.092;2022-08-03T06:17:16;101235.16;;;22.83;59.08
72285;BME280;60220;53.552;10.092;2022-08-03T06:19:44;101232.28;;;23.17;57.71
72285;BME280;60220;53.552;10.092;2022-08-03T06:22:10;101225.19;;;23.47;56.39
72285;BME280;60220;53.552;10.092;2022-08-03T06:24:37;101230.75;;;23.13;57.57
72285;BME280;60220;53.552;10.092;2022-08-03T06:27:05;101232.34;;;22.86;58.08
72285;BME280;60220;53.552;10.092;2022-08-03T06:29:31;101228.56;;;23.35;56.59
72285;BME280;60220;53.552;10.092;2022-08-03T06:32:02;101232.06;;;23.06;57.52
72285;BME280;60220;53.552;10.092;2022-08-03T06:34:27;101231.97;;;23.69;56.29
72285;BME280;60220;53.552;10.092;2022-08-03T06:36:53;101224.09;;;24.10;55.03
72285;BME280;60220;53.552;10.092;2022-08-03T06:39:22;101225.25;;;24.06;55.21
72285;BME280;60220;53.552;10.092;2022-08-03T06:41:47;101223.19;;;25.08;52.51
72285;BME280;60220;53.552;10.092;2022-08-03T06:44:13;101228.63;;;24.23;54.74
72285;BME280;60220;53.552;10.092;2022-08-03T06:46:40;101234.75;;;24.68;53.33
72285;BME280;60220;53.552;10.092;2022-08-03T06:49:07;101237.69;;;25.33;51.98
72285;BME280;60220;53.552;10.092;2022-08-03T06:51:37;101238.13;;;24.29;53.56
72285;BME280;60220;53.552;10.092;2022-08-03T06:54:03;101232.44;;;24.62;53.26
72285;BME280;60220;53.552;10.092;2022-08-03T06:56:28;101236.19;;;24.17;53.73
72285;BME280;60220;53.552;10.092;2022-08-03T06:58:54;101233.34;;;23.90;54.26
72285;BME280;60220;53.552;10.092;2022-08-03T07:01:19;101241.47;;;24.32;53.12
72285;BME280;60220;53.552;10.092;2022-08-03T07:03:44;101233.59;;;24.72;52.69
72285;BME280;60220;53.552;10.092;2022-08-03T07:06:10;101236.38;;;26.04;49.71
72285;BME280;60220;53.552;10.092;2022-08-03T07:08:35;101234.19;;;25.97;49.84
72285;BME280;60220;53.552;10.092;2022-08-03T07:11:01;101237.56;;;26.38;47.15
72285;BME280;60220;53.552;10.092;2022-08-03T07:13:27;101242.22;;;26.24;47.63
72285;BME280;60220;53.552;10.092;2022-08-03T07:15:54;101250.28;;;26.24;47.26
72285;BME280;60220;53.552;10.092;2022-08-03T07:18:20;101252.34;;;26.82;46.24
72285;BME280;60220;53.552;10.092;2022-08-03T07:20:48;101251.56;;;26.43;47.50
72285;BME280;60220;53.552;10.092;2022-08-03T07:23:14;101243.53;;;27.40;44.79
72285;BME280;60220;53.552;10.092;2022-08-03T07:25:41;101247.97;;;26.68;46.56
72285;BME280;60220;53.552;10.092;2022-08-03T07:28:08;101242.72;;;28.09;43.45
72285;BME280;60220;53.552;10.092;2022-08-03T07:30:33;101250.56;;;27.66;45.95
72285;BME280;60220;53.552;10.092;2022-08-03T07:33:02;101249.94;;;27.39;46.27
72285;BME280;60220;53.552;10.092;2022-08-03T07:35:29;101255.00;;;27.07;46.19
72285;BME280;60220;53.552;10.092;2022-08-03T07:38:00;101245.91;;;27.45;45.06
72285;BME280;60220;53.552;10.092;2022-08-03T07:40:28;101254.56;;;27.13;45.98
72285;BME280;60220;53.552;10.092;2022-08-03T07:42:53;101261.03;;;26.49;47.66
72285;BME280;60220;53.552;10.092;2022-08-03T07:45:19;101257.13;;;26.02;48.38
72285;BME280;60220;53.552;10.092;2022-08-03T07:47:47;101255.53;;;26.00;48.58
72285;BME280;60220;53.552;10.092;2022-08-03T07:50:12;101256.38;;;26.51;46.84
72285;BME280;60220;53.552;10.092;2022-08-03T07:52:40;101250.06;;;26.27;47.76
72285;BME280;60220;53.552;10.092;2022-08-03T07:55:18;101250.25;;;26.62;47.01
72285;BME280;60220;53.552;10.092;2022-08-03T07:57:43;101251.44;;;26.58;47.40
72285;BME280;60220;53.552;10.092;2022-08-03T08:00:17;101240.94;;;26.78;47.02
72285;BME280;60220;53.552;10.092;2022-08-03T08:02:44;101252.25;;;26.83;47.49
72285;BME280;60220;53.552;10.092;2022-08-03T08:05:10;101246.94;;;27.07;46.43
72285;BME280;60220;53.552;10.092;2022-08-03T08:07:37;101247.25;;;26.53;45.92
72285;BME280;60220;53.552;10.092;2022-08-03T08:10:07;101244.94;;;27.69;45.78
72285;BME280;60220;53.552;10.092;2022-08-03T08:12:34;101244.41;;;27.17;46.02
72285;BME280;60220;53.552;10.092;2022-08-03T08:15:00;101241.44;;;27.09;44.94
72285;BME280;60220;53.552;10.092;2022-08-03T08:17:26;101241.03;;;27.26;44.75
72285;BME280;60220;53.552;10.092;2022-08-03T08:19:51;101237.66;;;27.59;44.03
72285;BME280;60220;53.552;10.092;2022-08-03T08:22:18;101244.59;;;26.90;44.67
72285;BME280;60220;53.552;10.092;2022-08-03T08:24:45;101233.72;;;27.98;42.88
72285;BME280;60220;53.552;10.092;2022-08-03T08:27:14;101229.81;;;29.13;40.94
72285;BME280;60220;53.552;10.092;2022-08-03T08:29:39;101236.59;;;27.25;44.40
72285;BME280;60220;53.552;10.092;2022-08-03T08:32:05;101237.13;;;27.06;44.97
72285;BME280;60220;53.552;10.092;2022-08-03T08:34:33;101227.25;;;27.65;44.16
72285;BME280;60220;53.552;10.092;2022-08-03T08:37:00;101228.66;;;28.84;41.73
72285;BME280;60220;53.552;10.092;2022-08-03T08:39:28;101227.25;;;27.41;43.85
72285;BME280;60220;53.552;10.092;2022-08-03T08:41:53;101232.75;;;27.16;44.72
72285;BME280;60220;53.552;10.092;2022-08-03T08:44:21;101236.53;;;27.96;43.41
72285;BME280;60220;53.552;10.092;2022-08-03T08:46:49;101236.59;;;28.30;42.71
72285;BME280;60220;53.552;10.092;2022-08-03T08:49:22;101234.94;;;27.35;44.82
72285;BME280;60220;53.552;10.092;2022-08-03T08:51:50;101232.03;;;27.62;44.32
72285;BME280;60220;53.552;10.092;2022-08-03T08:54:20;101238.69;;;28.71;41.34
72285;BME280;60220;53.552;10.092;2022-08-03T08:56:49;101245.16;;;27.66;43.85
72285;BME280;60220;53.552;10.092;2022-08-03T08:59:17;101237.88;;;29.24;41.02
72285;BME280;60220;53.552;10.092;2022-08-03T09:01:44;101241.28;;;30.01;39.78
72285;BME280;60220;53.552;10.092;2022-08-03T09:04:12;101242.00;;;30.03;40.28
72285;BME280;60220;53.552;10.092;2022-08-03T09:06:41;101242.34;;;29.14;42.61
72285;BME280;60220;53.552;10.092;2022-08-03T09:09:10;101244.38;;;30.17;40.60
72285;BME280;60220;53.552;10.092;2022-08-03T09:11:35;101240.06;;;30.66;38.35
72285;BME280;60220;53.552;10.092;2022-08-03T09:14:01;101233.38;;;29.57;40.68
72285;BME280;60220;53.552;10.092;2022-08-03T09:16:26;101244.03;;;30.31;39.89
72285;BME280;60220;53.552;10.092;2022-08-03T09:18:53;101240.81;;;28.78;42.43
72285;BME280;60220;53.552;10.092;2022-08-03T09:21:26;101234.53;;;28.55;42.89
72285;BME280;60220;53.552;10.092;2022-08-03T09:23:56;101228.34;;;27.63;44.69
72285;BME280;60220;53.552;10.092;2022-08-03T09:26:25;101239.34;;;27.95;44.27
72285;BME280;60220;53.552;10.092;2022-08-03T09:29:10;101237.06;;;29.56;41.81
72285;BME280;60220;53.552;10.092;2022-08-03T09:31:38;101231.88;;;30.05;40.58
72285;BME280;60220;53.552;10.092;2022-08-03T09:34:08;101232.81;;;28.21;44.33
72285;BME280;60220;53.552;10.092;2022-08-03T09:39:16;101240.94;;;28.88;43.55
72285;BME280;60220;53.552;10.092;2022-08-03T09:41:47;101232.53;;;29.13;42.27
72285;BME280;60220;53.552;10.092;2022-08-03T09:44:13;101227.03;;;28.25;43.50
72285;BME280;60220;53.552;10.092;2022-08-03T09:46:55;101246.31;;;28.21;44.00
72285;BME280;60220;53.552;10.092;2022-08-03T09:49:23;101231.28;;;29.17;42.57
72285;BME280;60220;53.552;10.092;2022-08-03T09:51:51;101235.53;;;28.88;44.71
72285;BME280;60220;53.552;10.092;2022-08-03T09:54:30;101239.84;;;27.89;44.75
72285;BME280;60220;53.552;10.092;2022-08-03T09:56:58;101243.38;;;28.80;44.46
72285;BME280;60220;53.552;10.092;2022-08-03T09:59:26;101238.41;;;28.07;44.65
72285;BME280;60220;53.552;10.092;2022-08-03T10:01:52;101228.50;;;28.41;44.53
72285;BME280;60220;53.552;10.092;2022-08-03T10:04:20;101225.47;;;28.34;44.26
72285;BME280;60220;53.552;10.092;2022-08-03T10:07:09;101232.56;;;28.80;43.50
72285;BME280;60220;53.552;10.092;2022-08-03T10:09:37;101228.38;;;29.09;43.07
72285;BME280;60220;53.552;10.092;2022-08-03T10:12:20;101220.38;;;29.07;43.27
72285;BME280;60220;53.552;10.092;2022-08-03T10:14:46;101224.31;;;29.46;43.63
72285;BME280;60220;53.552;10.092;2022-08-03T10:17:12;101219.28;;;29.74;41.62
72285;BME280;60220;53.552;10.092;2022-08-03T10:19:42;101225.75;;;30.03;39.94
72285;BME280;60220;53.552;10.092;2022-08-03T10:22:18;101225.84;;;29.81;40.46
72285;BME280;60220;53.552;10.092;2022-08-03T10:27:15;101224.63;;;29.32;43.48
72285;BME280;60220;53.552;10.092;2022-08-03T10:29:44;101224.44;;;30.18;40.90
72285;BME280;60220;53.552;10.092;2022-08-03T10:32:21;101214.88;;;28.87;42.36
72285;BME280;60220;53.552;10.092;2022-08-03T10:34:53;101214.56;;;29.55;41.50
72285;BME280;60220;53.552;10.092;2022-08-03T10:37:24;101214.66;;;28.79;42.37
72285;BME280;60220;53.552;10.092;2022-08-03T10:39:55;101212.81;;;28.68;43.95
72285;BME280;60220;53.552;10.092;2022-08-03T10:42:23;101221.53;;;28.38;43.20
72285;BME280;60220;53.552;10.092;2022-08-03T10:45:06;101210.25;;;28.33;43.65
72285;BME280;60220;53.552;10.092;2022-08-03T10:47:35;101206.31;;;28.26;44.41
72285;BME280;60220;53.552;10.092;2022-08-03T10:50:01;101209.25;;;28.23;44.21
72285;BME280;60220;53.552;10.092;2022-08-03T10:52:27;101206.16;;;28.61;43.68
72285;BME280;60220;53.552;10.092;2022-08-03T10:54:53;101204.06;;;28.98;43.15
72285;BME280;60220;53.552;10.092;2022-08-03T10:57:47;101200.94;;;29.45;41.80
72285;BME280;60220;53.552;10.092;2022-08-03T11:00:21;101208.56;;;30.14;41.89
72285;BME280;60220;53.552;10.092;2022-08-03T11:03:09;101205.38;;;29.46;42.06
72285;BME280;60220;53.552;10.092;2022-08-03T11:05:37;101202.78;;;29.13;41.92
72285;BME280;60220;53.552;10.092;2022-08-03T11:08:23;101207.72;;;29.72;40.38
72285;BME280;60220;53.552;10.092;2022-08-03T11:10:52;101204.47;;;29.57;40.88
72285;BME280;60220;53.552;10.092;2022-08-03T11:13:22;101202.94;;;29.00;41.39
72285;BME280;60220;53.552;10.092;2022-08-03T11:15:50;101208.50;;;28.54;42.89
72285;BME280;60220;53.552;10.092;2022-08-03T11:18:19;101197.31;;;29.35;42.36
72285;BME280;60220;53.552;10.092;2022-08-03T11:20:54;101196.69;;;29.64;40.90
72285;BME280;60220;53.552;10.092;2022-08-03T11:23:44;101201.84;;;29.67;40.54
72285;BME280;60220;53.552;10.092;2022-08-03T11:26:12;101198.59;;;30.14;39.56
72285;BME280;60220;53.552;10.092;2022-08-03T11:28:39;101204.16;;;29.39;41.77
72285;BME280;60220;53.552;10.092;2022-08-03T11:36:28;101206.44;;;30.78;40.57
72285;BME280;60220;53.552;10.092;2022-08-03T11:39:12;101204.16;;;30.13;40.54
72285;BME280;60220;53.552;10.092;2022-08-03T11:41:40;101190.78;;;29.38;41.49
72285;BME280;60220;53.552;10.092;2022-08-03T11:44:07;101198.03;;;29.90;40.53
72285;BME280;60220;53.552;10.092;2022-08-03T11:46:37;101189.84;;;30.62;39.16
72285;BME280;60220;53.552;10.092;2022-08-03T11:49:07;101179.03;;;29.69;41.37
72285;BME280;60220;53.552;10.092;2022-08-03T11:51:33;101191.81;;;29.78;40.69
72285;BME280;60220;53.552;10.092;2022-08-03T11:54:03;101185.00;;;29.42;41.80
72285;BME280;60220;53.552;10.092;2022-08-03T11:56:48;101190.47;;;30.14;40.01
72285;BME280;60220;53.552;10.092;2022-08-03T11:59:14;101181.69;;;31.02;38.98
72285;BME280;60220;53.552;10.092;2022-08-03T12:01:41;101192.00;;;30.38;40.03
72285;BME280;60220;53.552;10.092;2022-08-03T12:04:09;101189.47;;;29.32;40.50
72285;BME280;60220;53.552;10.092;2022-08-03T12:06:35;101185.25;;;29.81;40.48
72285;BME280;60220;53.552;10.092;2022-08-03T12:09:19;101180.94;;;30.50;39.67
72285;BME280;60220;53.552;10.092;2022-08-03T12:11:50;101176.31;;;30.71;38.14
72285;BME280;60220;53.552;10.092;2022-08-03T12:14:19;101182.44;;;30.33;39.56
72285;BME280;60220;53.552;10.092;2022-08-03T12:16:48;101179.38;;;29.76;40.12
72285;BME280;60220;53.552;10.092;2022-08-03T12:19:14;101182.56;;;30.32;39.38
72285;BME280;60220;53.552;10.092;2022-08-03T12:21:46;101174.44;;;30.02;39.71
72285;BME280;60220;53.552;10.092;2022-08-03T12:24:13;101180.88;;;30.41;38.82
72285;BME280;60220;53.552;10.092;2022-08-03T12:26:49;101175.75;;;30.38;38.52
72285;BME280;60220;53.552;10.092;2022-08-03T12:29:16;101184.50;;;30.20;38.81
72285;BME280;60220;53.552;10.092;2022-08-03T12:31:45;101167.91;;;29.63;39.68
72285;BME280;60220;53.552;10.092;2022-08-03T12:34:10;101176.56;;;29.98;38.89
72285;BME280;60220;53.552;10.092;2022-08-03T12:36:50;101174.97;;;30.47;38.11
72285;BME280;60220;53.552;10.092;2022-08-03T12:39:22;101165.91;;;30.67;37.56
72285;BME280;60220;53.552;10.092;2022-08-03T12:41:52;101180.63;;;30.44;38.43
72285;BME280;60220;53.552;10.092;2022-08-03T12:44:34;101166.75;;;30.67;37.29
72285;BME280;60220;53.552;10.092;2022-08-03T12:47:03;101169.03;;;30.62;38.34
72285;BME280;60220;53.552;10.092;2022-08-03T12:49:48;101168.34;;;30.40;39.36
72285;BME280;60220;53.552;10.092;2022-08-03T12:52:16;101159.44;;;31.17;37.89
72285;BME280;60220;53.552;10.092;2022-08-03T12:54:41;101167.72;;;31.16;38.19
72285;BME280;60220;53.552;10.092;2022-08-03T12:57:12;101173.97;;;30.17;38.70
72285;BME280;60220;53.552;10.092;2022-08-03T12:59:44;101161.69;;;30.13;39.15
72285;BME280;60220;53.552;10.092;2022-08-03T13:02:16;101172.94;;;30.49;38.21
72285;BME280;60220;53.552;10.092;2022-08-03T13:04:48;101165.09;;;30.15;38.46
72285;BME280;60220;53.552;10.092;2022-08-03T13:07:15;101162.69;;;30.12;39.04
72285;BME280;60220;53.552;10.092;2022-08-03T13:09:51;101162.66;;;30.92;38.49
72285;BME280;60220;53.552;10.092;2022-08-03T13:12:19;101164.44;;;31.03;37.52
72285;BME280;60220;53.552;10.092;2022-08-03T13:14:47;101167.69;;;31.45;37.59